Observation data for Post on 03/24/2019      Previous  Date  Next       Current Mesonet Observations  Soil Data  Daily Summary Page  Observations in Plain Language
KPT1 240500Z 25008KT 13/M03 A2999 RMK A01 T01271033  RH  033%=      5-min Rain = 0
KPT1 240505Z 24007KT 13/M04 A2999 RMK A01 T01321036  RH  031%=      5-min Rain = 0
KPT1 240510Z 23007KT 13/M04 A2999 RMK A01 T01331037  RH  031%=      5-min Rain = 0
KPT1 240515Z 23006KT 13/M04 A2999 RMK A01 T01321037  RH  031%=      5-min Rain = 0
KPT1 240520Z 23007KT 13/M04 A2999 RMK A01 T01301037  RH  031%=      5-min Rain = 0
KPT1 240525Z 23007KT 13/M04 A2999 RMK A01 T01301038  RH  031%=      5-min Rain = 0
KPT1 240530Z 23007KT 13/M04 A2999 RMK A01 T01291038  RH  031%=      5-min Rain = 0
KPT1 240535Z 23007KT 13/M04 A2999 RMK A01 T01291039  RH  031%=      5-min Rain = 0
KPT1 240540Z 23007KT 13/M04 A2999 RMK A01 T01291039  RH  031%=      5-min Rain = 0
KPT1 240545Z 23007KT 13/M04 A2999 RMK A01 T01291039  RH  031%=      5-min Rain = 0
KPT1 240550Z 23008KT 13/M04 A2999 RMK A01 T01291041  RH  031%=      5-min Rain = 0
KPT1 240555Z 23007KT 13/M04 A2999 RMK A01 T01321044  RH  030%=      5-min Rain = 0
KPT1 240600Z 23008KT 13/M05 A2999 RMK A01 T01331045  RH  029%=      5-min Rain = 0
KPT1 240605Z 23008KT 13/M05 A2999 RMK A01 T01341047  RH  028%=      5-min Rain = 0
KPT1 240610Z 23008KT 14/M05 A2999 RMK A01 T01361048  RH  028%=      5-min Rain = 0
KPT1 240615Z 23008KT 14/M05 A2999 RMK A01 T01351048  RH  028%=      5-min Rain = 0
KPT1 240620Z 23007KT 14/M05 A2999 RMK A01 T01351048  RH  028%=      5-min Rain = 0
KPT1 240625Z 23007KT 14/M05 A2998 RMK A01 T01351049  RH  028%=      5-min Rain = 0
KPT1 240630Z 22006KT 13/M05 A2998 RMK A01 T01321047  RH  029%=      5-min Rain = 0
KPT1 240635Z 22007KT 13/M05 A2998 RMK A01 T01331049  RH  028%=      5-min Rain = 0
KPT1 240640Z 22007KT 13/M05 A2998 RMK A01 T01341050  RH  028%=      5-min Rain = 0
KPT1 240645Z 22008KT 13/M05 A2998 RMK A01 T01341049  RH  028%=      5-min Rain = 0
KPT1 240650Z 21007KT 13/M05 A2998 RMK A01 T01341049  RH  028%=      5-min Rain = 0
KPT1 240655Z 21007KT 13/M05 A2998 RMK A01 T01331048  RH  028%=      5-min Rain = 0
KPT1 240700Z 21007KT 13/M05 A2998 RMK A01 T01311047  RH  029%=      5-min Rain = 0
KPT1 240705Z 22007KT 13/M05 A2998 RMK A01 T01321048  RH  028%=      5-min Rain = 0
KPT1 240710Z 22008KT 14/M05 A2997 RMK A01 T01371049  RH  027%=      5-min Rain = 0
KPT1 240715Z 22008KT 14/M05 A2997 RMK A01 T01411050  RH  027%=      5-min Rain = 0
KPT1 240720Z 23008KT 14/M05 A2997 RMK A01 T01431050  RH  026%=      5-min Rain = 0
KPT1 240725Z 23008KT 14/M05 A2997 RMK A01 T01441051  RH  026%=      5-min Rain = 0
KPT1 240730Z 23008KT 14/M05 A2997 RMK A01 T01441051  RH  026%=      5-min Rain = 0
KPT1 240735Z 23009KT 14/M05 A2997 RMK A01 T01441051  RH  026%=      5-min Rain = 0
KPT1 240740Z 23008KT 14/M05 A2997 RMK A01 T01431051  RH  026%=      5-min Rain = 0
KPT1 240745Z 23008KT 14/M05 A2997 RMK A01 T01431050  RH  026%=      5-min Rain = 0
KPT1 240750Z 23008KT 14/M05 A2997 RMK A01 T01421049  RH  026%=      5-min Rain = 0
KPT1 240755Z 24008KT 14/M05 A2997 RMK A01 T01411048  RH  027%=      5-min Rain = 0
KPT1 240800Z 24008KT 13/M04 A2997 RMK A01 T01291041  RH  031%=      5-min Rain = 0
KPT1 240805Z 24008KT 11/M04 A2997 RMK A01 T01141035  RH  036%=      5-min Rain = 0
KPT1 240810Z 25009KT 11/M03 A2997 RMK A01 T01081032  RH  038%=      5-min Rain = 0
KPT1 240815Z 25009KT 11/M03 A2997 RMK A01 T01101033  RH  037%=      5-min Rain = 0
KPT1 240820Z 24008KT 12/M04 A2998 RMK A01 T01161035  RH  035%=      5-min Rain = 0
KPT1 240825Z 24008KT 11/M04 A2997 RMK A01 T01141036  RH  035%=      5-min Rain = 0
KPT1 240830Z 19005KT 11/M04 A2998 RMK A01 T01111035  RH  036%=      5-min Rain = 0
KPT1 240835Z 20005KT 11/M04 A2998 RMK A01 T01101038  RH  036%=      5-min Rain = 0
KPT1 240840Z 21006KT 11/M04 A2997 RMK A01 T01111038  RH  035%=      5-min Rain = 0
KPT1 240845Z 24007KT 11/M04 A2997 RMK A01 T01111038  RH  035%=      5-min Rain = 0
KPT1 240850Z 24007KT 12/M04 A2997 RMK A01 T01151037  RH  035%=      5-min Rain = 0
KPT1 240855Z 22005KT 11/M04 A2997 RMK A01 T01061035  RH  037%=      5-min Rain = 0
KPT1 240900Z 22007KT 10/M04 A2997 RMK A01 T01031035  RH  038%=      5-min Rain = 0
KPT1 240905Z 23007KT 11/M04 A2997 RMK A01 T01071035  RH  037%=      5-min Rain = 0
KPT1 240910Z 24007KT 11/M04 A2997 RMK A01 T01111035  RH  036%=      5-min Rain = 0
KPT1 240915Z 23006KT 11/M04 A2998 RMK A01 T01071035  RH  037%=      5-min Rain = 0
KPT1 240920Z 23007KT 11/M04 A2998 RMK A01 T01111036  RH  036%=      5-min Rain = 0
KPT1 240925Z 24007KT 11/M03 A2998 RMK A01 T01101034  RH  037%=      5-min Rain = 0
KPT1 240930Z 24008KT 12/M04 A2998 RMK A01 T01161036  RH  035%=      5-min Rain = 0
KPT1 240935Z 24008KT 12/M04 A2998 RMK A01 T01201037  RH  034%=      5-min Rain = 0
KPT1 240940Z 24009KT 12/M04 A2998 RMK A01 T01161036  RH  035%=      5-min Rain = 0
KPT1 240945Z 24008KT 11/M04 A2998 RMK A01 T01141036  RH  035%=      5-min Rain = 0
KPT1 240950Z 25009KT 11/M03 A2998 RMK A01 T01101033  RH  037%=      5-min Rain = 0
KPT1 240955Z 25009KT 11/M03 A2998 RMK A01 T01061030  RH  039%=      5-min Rain = 0
KPT1 241000Z 25009KT 11/M03 A2998 RMK A01 T01051029  RH  039%=      5-min Rain = 0
KPT1 241005Z 24010KT 11/M03 A2998 RMK A01 T01081030  RH  038%=      5-min Rain = 0
KPT1 241010Z 25009KT 11/M03 A2998 RMK A01 T01071031  RH  038%=      5-min Rain = 0
KPT1 241015Z 25008G13KT 10/M03 A2998 RMK A01 T01031030  RH  040%=      5-min Rain = 0
KPT1 241020Z 25010KT 11/M03 A2998 RMK A01 T01061028  RH  039%=      5-min Rain = 0
KPT1 241025Z 25011KT 11/M02 A2998 RMK A01 T01081024  RH  040%=      5-min Rain = 0
KPT1 241030Z 25011G16KT 11/M02 A2998 RMK A01 T01091018  RH  042%=      5-min Rain = 0
KPT1 241035Z 25012G19KT 12/M02 A2998 RMK A01 T01181018  RH  039%=      5-min Rain = 0
KPT1 241040Z 24014G19KT 12/M03 A2998 RMK A01 T01211025  RH  036%=      5-min Rain = 0
KPT1 241045Z 24013KT 13/M03 A2998 RMK A01 T01251025  RH  035%=      5-min Rain = 0
KPT1 241050Z 24014G19KT 13/M03 A2998 RMK A01 T01281027  RH  034%=      5-min Rain = 0
KPT1 241055Z 24013KT 13/M04 A2998 RMK A01 T01251043  RH  031%=      5-min Rain = 0
KPT1 241100Z 24012KT 12/M05 A2998 RMK A01 T01191051  RH  030%=      5-min Rain = 0
KPT1 241105Z 25012G17KT 12/M05 A2998 RMK A01 T01171053  RH  030%=      5-min Rain = 0
KPT1 241110Z 24012KT 12/M05 A2998 RMK A01 T01171054  RH  030%=      5-min Rain = 0
KPT1 241115Z 25013KT 12/M06 A2998 RMK A01 T01201057  RH  029%=      5-min Rain = 0
KPT1 241120Z 24012KT 12/M06 A2998 RMK A01 T01211057  RH  029%=      5-min Rain = 0
KPT1 241125Z 24011G16KT 12/M06 A2998 RMK A01 T01221057  RH  029%=      5-min Rain = 0
KPT1 241130Z 25013KT 12/M06 A2998 RMK A01 T01181055  RH  030%=      5-min Rain = 0
KPT1 241135Z 26011KT 11/M05 A2999 RMK A01 T01131052  RH  031%=      5-min Rain = 0
KPT1 241140Z 26010G16KT 11/M05 A2999 RMK A01 T01061049  RH  033%=      5-min Rain = 0
KPT1 241145Z 25013KT 11/M05 A2999 RMK A01 T01051048  RH  034%=      5-min Rain = 0
KPT1 241150Z 26011G16KT 10/M05 A2999 RMK A01 T01021047  RH  035%=      5-min Rain = 0
KPT1 241155Z 26012KT 10/M05 A2999 RMK A01 T00991045  RH  036%=      5-min Rain = 0
KPT1 241200Z 26012KT 10/M05 A2999 RMK A01 T01001045  RH  036%=      5-min Rain = 0
KPT1 241205Z 26013KT 10/M04 A30 RMK A01 T00961042  RH  038%=      5-min Rain = 0
KPT1 241210Z 26013KT 09/M04 A30 RMK A01 T00911041  RH  040%=      5-min Rain = 0
KPT1 241215Z 26012KT 09/M04 A30 RMK A01 T00931042  RH  039%=      5-min Rain = 0
KPT1 241220Z 26011KT 10/M05 A30 RMK A01 T00991046  RH  036%=      5-min Rain = 0
KPT1 241225Z 26010KT 10/M05 A30 RMK A01 T01031048  RH  035%=      5-min Rain = 0
KPT1 241230Z 27009KT 10/M05 A30 RMK A01 T01021048  RH  035%=      5-min Rain = 0
KPT1 241235Z 28009KT 11/M05 A3001 RMK A01 T01061050  RH  033%=      5-min Rain = 0
KPT1 241240Z 29008KT 11/M05 A3001 RMK A01 T01061048  RH  034%=      5-min Rain = 0
KPT1 241245Z 30004KT 10/M05 A3001 RMK A01 T01021048  RH  035%=      5-min Rain = 0
KPT1 241250Z 32004KT 10/M05 A3002 RMK A01 T01031051  RH  034%=      5-min Rain = 0
KPT1 241255Z 29006KT 11/M05 A3002 RMK A01 T01061052  RH  033%=      5-min Rain = 0
KPT1 241300Z 28006KT 11/M05 A3002 RMK A01 T01091051  RH  032%=      5-min Rain = 0
KPT1 241305Z 28008KT 11/M05 A3002 RMK A01 T01101050  RH  032%=      5-min Rain = 0
KPT1 241310Z 29008KT 11/M05 A3002 RMK A01 T01111048  RH  033%=      5-min Rain = 0
KPT1 241315Z 29010KT 11/M05 A3003 RMK A01 T01101047  RH  033%=      5-min Rain = 0
KPT1 241320Z 28008KT 11/M04 A3003 RMK A01 T01111044  RH  034%=      5-min Rain = 0
KPT1 241325Z 29007KT 11/M04 A3004 RMK A01 T01131042  RH  034%=      5-min Rain = 0
KPT1 241330Z 29009KT 11/M04 A3004 RMK A01 T01141041  RH  034%=      5-min Rain = 0
KPT1 241335Z 29012KT 11/M04 A3004 RMK A01 T01121040  RH  035%=      5-min Rain = 0
KPT1 241340Z 29011KT 11/M04 A3004 RMK A01 T01111036  RH  036%=      5-min Rain = 0
KPT1 241345Z 29012KT 11/M03 A3004 RMK A01 T01121033  RH  036%=      5-min Rain = 0
KPT1 241350Z 29012KT 11/M03 A3004 RMK A01 T01131031  RH  037%=      5-min Rain = 0
KPT1 241355Z 29011KT 12/M03 A3005 RMK A01 T01151030  RH  037%=      5-min Rain = 0
KPT1 241400Z 29010KT 12/M03 A3005 RMK A01 T01171028  RH  037%=      5-min Rain = 0
KPT1 241405Z 29010KT 12/M03 A3005 RMK A01 T01191025  RH  037%=      5-min Rain = 0
KPT1 241410Z 29011KT 12/M02 A3005 RMK A01 T01211022  RH  037%=      5-min Rain = 0
KPT1 241415Z 29012KT 12/M02 A3006 RMK A01 T01211019  RH  038%=      5-min Rain = 0
KPT1 241420Z 30009KT 12/M01 A3006 RMK A01 T01231013  RH  039%=      5-min Rain = 0
KPT1 241425Z 31010KT 12/M01 A3007 RMK A01 T01241009  RH  040%=      5-min Rain = 0
KPT1 241430Z 31010KT 13/M00 A3007 RMK A01 T01261004  RH  041%=      5-min Rain = 0
KPT1 241435Z 32009KT 13/00 A3007 RMK A01 T012700-0  RH  042%=      5-min Rain = 0
KPT1 241440Z 32008G13KT 13/00 A3007 RMK A01 T01290004  RH  043%=      5-min Rain = 0
KPT1 241445Z 32009KT 13/01 A3008 RMK A01 T01300008  RH  044%=      5-min Rain = 0
KPT1 241450Z 32009KT 13/01 A3008 RMK A01 T01320008  RH  043%=      5-min Rain = 0
KPT1 241455Z 33009KT 13/01 A3008 RMK A01 T01310008  RH  044%=      5-min Rain = 0
KPT1 241500Z 33008KT 13/01 A3008 RMK A01 T01340012  RH  044%=      5-min Rain = 0
KPT1 241505Z 34010KT 13/01 A3008 RMK A01 T01320013  RH  045%=      5-min Rain = 0
KPT1 241510Z 33008KT 13/02 A3008 RMK A01 T01330015  RH  045%=      5-min Rain = 0
KPT1 241515Z 34007KT 13/02 A3008 RMK A01 T01330017  RH  046%=      5-min Rain = 0
KPT1 241520Z 35009KT 13/02 A3008 RMK A01 T01340018  RH  046%=      5-min Rain = 0
KPT1 241525Z 34009KT 14/02 A3008 RMK A01 T01370021  RH  046%=      5-min Rain = 0
KPT1 241530Z 34009KT 14/02 A3008 RMK A01 T01410021  RH  045%=      5-min Rain = 0
KPT1 241535Z 34009KT 14/02 A3008 RMK A01 T01440022  RH  044%=      5-min Rain = 0
KPT1 241540Z 34009KT 14/02 A3008 RMK A01 T01430023  RH  045%=      5-min Rain = 0
KPT1 241545Z 34008KT 14/02 A3008 RMK A01 T01420023  RH  045%=      5-min Rain = 0
KPT1 241550Z 34007KT 14/03 A3008 RMK A01 T01430025  RH  046%=      5-min Rain = 0
KPT1 241555Z 34004KT 14/03 A3009 RMK A01 T01390025  RH  047%=      5-min Rain = 0
KPT1 241600Z 34004KT 14/03 A3009 RMK A01 T01410025  RH  046%=      5-min Rain = 0
KPT1 241605Z 33004KT 14/03 A3009 RMK A01 T01420026  RH  046%=      5-min Rain = 0
KPT1 241610Z 00004KT 14/03 A3009 RMK A01 T01430026  RH  046%=      5-min Rain = 0
KPT1 241615Z 35004KT 15/03 A3009 RMK A01 T01460027  RH  045%=      5-min Rain = 0
KPT1 241620Z 02003KT 15/03 A3009 RMK A01 T01500028  RH  044%=      5-min Rain = 0
KPT1 241625Z 07003KT 15/03 A3009 RMK A01 T01520029  RH  044%=      5-min Rain = 0
KPT1 241630Z 10004KT 16/03 A3009 RMK A01 T01560030  RH  043%=      5-min Rain = 0
KPT1 241635Z 09002KT 16/03 A3009 RMK A01 T01550028  RH  043%=      5-min Rain = 0
KPT1 241640Z 06001KT 16/03 A3009 RMK A01 T01590029  RH  042%=      5-min Rain = 0
KPT1 241645Z 04001KT 16/03 A3009 RMK A01 T01600028  RH  042%=      5-min Rain = 0
KPT1 241650Z 33002KT 16/03 A3009 RMK A01 T01620027  RH  041%=      5-min Rain = 0
KPT1 241655Z 20001KT 17/03 A3009 RMK A01 T01680028  RH  039%=      5-min Rain = 0
KPT1 241700Z 19002KT 17/03 A3009 RMK A01 T01720029  RH  039%=      5-min Rain = 0
KPT1 241705Z 24001KT 18/03 A3009 RMK A01 T01780031  RH  038%=      5-min Rain = 0
KPT1 241710Z 05002KT 18/03 A3009 RMK A01 T01760029  RH  038%=      5-min Rain = 0
KPT1 241715Z 09002KT 18/03 A3009 RMK A01 T01760029  RH  038%=      5-min Rain = 0
KPT1 241720Z 08002KT 18/03 A3009 RMK A01 T01780030  RH  038%=      5-min Rain = 0
KPT1 241725Z 09003KT 18/03 A3008 RMK A01 T01770029  RH  038%=      5-min Rain = 0
KPT1 241730Z 11004KT 18/03 A3008 RMK A01 T01750027  RH  038%=      5-min Rain = 0
KPT1 241735Z 11002KT 18/03 A3008 RMK A01 T01790026  RH  036%=      5-min Rain = 0
KPT1 241740Z 14003KT 19/03 A3008 RMK A01 T01860027  RH  035%=      5-min Rain = 0
KPT1 241745Z 15002KT 19/03 A3008 RMK A01 T01860028  RH  035%=      5-min Rain = 0
KPT1 241750Z 00001KT 19/03 A3008 RMK A01 T01870028  RH  035%=      5-min Rain = 0
KPT1 241755Z 16002KT 19/02 A3008 RMK A01 T01860023  RH  034%=      5-min Rain = 0
KPT1 241800Z 14002KT 19/02 A3008 RMK A01 T01890023  RH  033%=      5-min Rain = 0
KPT1 241805Z 09003KT 19/02 A3008 RMK A01 T01900022  RH  033%=      5-min Rain = 0
KPT1 241810Z 13003KT 19/03 A3008 RMK A01 T01910025  RH  034%=      5-min Rain = 0
KPT1 241815Z 11003KT 20/03 A3008 RMK A01 T01950026  RH  033%=      5-min Rain = 0
KPT1 241820Z 11002KT 20/03 A3008 RMK A01 T01990026  RH  032%=      5-min Rain = 0
KPT1 241825Z 21002KT 20/02 A3008 RMK A01 T02000016  RH  030%=      5-min Rain = 0
KPT1 241830Z 30003KT 20/02 A3007 RMK A01 T02000016  RH  030%=      5-min Rain = 0
KPT1 241835Z 33001KT 20/02 A3007 RMK A01 T02010015  RH  029%=      5-min Rain = 0
KPT1 241840Z 18003KT 20/02 A3007 RMK A01 T02040016  RH  029%=      5-min Rain = 0
KPT1 241845Z 22002KT 21/02 A3007 RMK A01 T02080017  RH  029%=      5-min Rain = 0
KPT1 241850Z 16004KT 21/02 A3007 RMK A01 T02090019  RH  029%=      5-min Rain = 0
KPT1 241855Z 19002G7KT 21/02 A3006 RMK A01 T02110020  RH  029%=      5-min Rain = 0
KPT1 241900Z 22003KT 21/02 A3006 RMK A01 T02140020  RH  028%=      5-min Rain = 0
KPT1 241905Z 09002KT 22/02 A3006 RMK A01 T02240023  RH  027%=      5-min Rain = 0
KPT1 241910Z 12004KT 23/02 A3005 RMK A01 T02250024  RH  027%=      5-min Rain = 0
KPT1 241915Z 12004KT 22/02 A3005 RMK A01 T02160020  RH  028%=      5-min Rain = 0
KPT1 241920Z 10003KT 22/02 A3005 RMK A01 T02180020  RH  027%=      5-min Rain = 0
KPT1 241925Z 11003KT 22/02 A3005 RMK A01 T02210018  RH  027%=      5-min Rain = 0
KPT1 241930Z 12003KT 22/02 A3004 RMK A01 T02220020  RH  027%=      5-min Rain = 0
KPT1 241935Z 12005KT 22/02 A3004 RMK A01 T02210020  RH  027%=      5-min Rain = 0
KPT1 241940Z 09003KT 22/02 A3004 RMK A01 T02210017  RH  026%=      5-min Rain = 0
KPT1 241945Z 07002KT 23/02 A3004 RMK A01 T02280019  RH  025%=      5-min Rain = 0
KPT1 241950Z 08003KT 23/02 A3004 RMK A01 T02330016  RH  024%=      5-min Rain = 0
KPT1 241955Z 06004KT 23/02 A3004 RMK A01 T02290016  RH  025%=      5-min Rain = 0
KPT1 242000Z 03003KT 23/02 A3003 RMK A01 T02300015  RH  025%=      5-min Rain = 0
KPT1 242005Z 06003KT 23/02 A3003 RMK A01 T02340015  RH  024%=      5-min Rain = 0
KPT1 242010Z 08003KT 24/01 A3003 RMK A01 T02400013  RH  023%=      5-min Rain = 0
KPT1 242015Z 05005KT 24/01 A3002 RMK A01 T02430014  RH  023%=      5-min Rain = 0
KPT1 242020Z 06004KT 25/01 A3002 RMK A01 T02490008  RH  021%=      5-min Rain = 0
KPT1 242025Z 00003KT 24/M00 A3002 RMK A01 T02421004  RH  020%=      5-min Rain = 0
KPT1 242030Z 33002KT 24/M00 A3002 RMK A01 T02381002  RH  021%=      5-min Rain = 0
KPT1 242035Z 17002KT 25/M00 A3002 RMK A01 T02511003  RH  019%=      5-min Rain = 0
KPT1 242040Z 07002KT 25/M01 A3001 RMK A01 T02521006  RH  018%=      5-min Rain = 0
KPT1 242045Z 01002KT 25/00 A3001 RMK A01 T02520000  RH  019%=      5-min Rain = 0
KPT1 242050Z 30002KT 25/M01 A3001 RMK A01 T02511011  RH  018%=      5-min Rain = 0
KPT1 242055Z 29002KT 25/M03 A3001 RMK A01 T02491033  RH  015%=      5-min Rain = 0
KPT1 242100Z 26006KT 26/M04 A3001 RMK A01 T02551039  RH  014%=      5-min Rain = 0
KPT1 242105Z 24005KT 25/M04 A3001 RMK A01 T02521038  RH  015%=      5-min Rain = 0
KPT1 242110Z 24006KT 25/M04 A3001 RMK A01 T02521042  RH  014%=      5-min Rain = 0
KPT1 242115Z 26006KT 25/M04 A3001 RMK A01 T02461041  RH  015%=      5-min Rain = 0
KPT1 242120Z 29003KT 25/M04 A3001 RMK A01 T02461036  RH  015%=      5-min Rain = 0
KPT1 242125Z 27005KT 26/M03 A3001 RMK A01 T02551032  RH  015%=      5-min Rain = 0
KPT1 242130Z 30006KT 26/M03 A3001 RMK A01 T02611026  RH  015%=      5-min Rain = 0
KPT1 242135Z 28007KT 26/M03 A3001 RMK A01 T02621027  RH  015%=      5-min Rain = 0
KPT1 242140Z 28007G12KT 26/M03 A3001 RMK A01 T02601032  RH  014%=      5-min Rain = 0
KPT1 242145Z 26008G13KT 27/M04 A30 RMK A01 T02651038  RH  013%=      5-min Rain = 0
KPT1 242150Z 27008KT 26/M04 A3001 RMK A01 T02621037  RH  014%=      5-min Rain = 0
KPT1 242155Z 25008KT 26/M03 A30 RMK A01 T02611033  RH  014%=      5-min Rain = 0
KPT1 242200Z 28008KT 26/M03 A30 RMK A01 T02631026  RH  015%=      5-min Rain = 0
KPT1 242205Z 28007KT 26/M03 A30 RMK A01 T02591032  RH  015%=      5-min Rain = 0
KPT1 242210Z 30005KT 26/M03 A30 RMK A01 T02621026  RH  015%=      5-min Rain = 0
KPT1 242215Z 32006KT 26/M03 A30 RMK A01 T02611027  RH  015%=      5-min Rain = 0
KPT1 242220Z 32003KT 26/M03 A30 RMK A01 T02581033  RH  015%=      5-min Rain = 0
KPT1 242225Z 29009KT 26/M04 A30 RMK A01 T02601041  RH  014%=      5-min Rain = 0
KPT1 242230Z 28008KT 26/M04 A30 RMK A01 T02621040  RH  014%=      5-min Rain = 0
KPT1 242235Z 28005KT 27/M04 A30 RMK A01 T02661038  RH  013%=      5-min Rain = 0
KPT1 242240Z 24005KT 26/M04 A30 RMK A01 T02631042  RH  013%=      5-min Rain = 0
KPT1 242245Z 28008KT 26/M04 A30 RMK A01 T02591044  RH  013%=      5-min Rain = 0
KPT1 242250Z 28005KT 26/M04 A30 RMK A01 T02621042  RH  013%=      5-min Rain = 0
KPT1 242255Z 29006G12KT 26/M04 A30 RMK A01 T02611039  RH  014%=      5-min Rain = 0
KPT1 242300Z 29006KT 26/M03 A30 RMK A01 T02591033  RH  014%=      5-min Rain = 0
KPT1 242305Z 32008G13KT 26/M03 A30 RMK A01 T02581027  RH  015%=      5-min Rain = 0
KPT1 242310Z 34006KT 26/M03 A30 RMK A01 T02561027  RH  015%=      5-min Rain = 0
KPT1 242315Z 34006G11KT 26/M03 A30 RMK A01 T02561028  RH  015%=      5-min Rain = 0
KPT1 242320Z 34009KT 26/M03 A30 RMK A01 T02551027  RH  016%=      5-min Rain = 0
KPT1 242325Z 34007KT 25/M02 A30 RMK A01 T02521023  RH  016%=      5-min Rain = 0
KPT1 242330Z 34010KT 25/M02 A30 RMK A01 T02501017  RH  017%=      5-min Rain = 0
KPT1 242335Z 00009KT 25/M02 A30 RMK A01 T02471018  RH  017%=      5-min Rain = 0
KPT1 242340Z 00008G13KT 25/M02 A30 RMK A01 T02451019  RH  018%=      5-min Rain = 0
KPT1 242345Z 35009KT 24/M02 A30 RMK A01 T02441016  RH  018%=      5-min Rain = 0
KPT1 242350Z 36008KT 24/M02 A3001 RMK A01 T02421017  RH  018%=      5-min Rain = 0
KPT1 242355Z 35009KT 24/M02 A3001 RMK A01 T02411015  RH  018%=      5-min Rain = 0
KPT1 250000Z 35008KT 24/M02 A3001 RMK A01 T02391015  RH  019%=      5-min Rain = 0
KPT1 250005Z 36008KT 24/M01 A3001 RMK A01 T02381013  RH  019%=      5-min Rain = 0
KPT1 250010Z 35007KT 24/M01 A3001 RMK A01 T02361014  RH  019%=      5-min Rain = 0
KPT1 250015Z 35006KT 24/M01 A3001 RMK A01 T02361011  RH  020%=      5-min Rain = 0
KPT1 250020Z 34006KT 23/M01 A3001 RMK A01 T02341006  RH  021%=      5-min Rain = 0
KPT1 250025Z 34006KT 23/M01 A3001 RMK A01 T02311006  RH  021%=      5-min Rain = 0
KPT1 250030Z 34006KT 23/M01 A3001 RMK A01 T02281005  RH  022%=      5-min Rain = 0
KPT1 250035Z 34005KT 22/M00 A3001 RMK A01 T02241003  RH  022%=      5-min Rain = 0
KPT1 250040Z 34004KT 22/M00 A3001 RMK A01 T02211002  RH  023%=      5-min Rain = 0
KPT1 250045Z 35004KT 22/M01 A3001 RMK A01 T02201005  RH  023%=      5-min Rain = 0
KPT1 250050Z 35005KT 22/M01 A3001 RMK A01 T02171008  RH  022%=      5-min Rain = 0
KPT1 250055Z 35005KT 22/M01 A3002 RMK A01 T02161011  RH  022%=      5-min Rain = 0
KPT1 250100Z 36005KT 21/M01 A3001 RMK A01 T02121012  RH  022%=      5-min Rain = 0
KPT1 250105Z 00005KT 21/M01 A3001 RMK A01 T02081011  RH  023%=      5-min Rain = 0
KPT1 250110Z 00005KT 21/M01 A3001 RMK A01 T02061011  RH  024%=      5-min Rain = 0
KPT1 250115Z 01005KT 20/M01 A3001 RMK A01 T02041009  RH  024%=      5-min Rain = 0
KPT1 250120Z 36005KT 20/M01 A3002 RMK A01 T02001009  RH  025%=      5-min Rain = 0
KPT1 250125Z 00004KT 20/M01 A3002 RMK A01 T01971008  RH  025%=      5-min Rain = 0
KPT1 250130Z 00004KT 20/M01 A3002 RMK A01 T01971006  RH  026%=      5-min Rain = 0
KPT1 250135Z 36003KT 19/M00 A3002 RMK A01 T01921004  RH  027%=      5-min Rain = 0
KPT1 250140Z 03002KT 19/M01 A3002 RMK A01 T01881005  RH  028%=      5-min Rain = 0
KPT1 250145Z 01003KT 19/M01 A3002 RMK A01 T01861007  RH  027%=      5-min Rain = 0
KPT1 250150Z 34004KT 19/M01 A3003 RMK A01 T01881007  RH  027%=      5-min Rain = 0
KPT1 250155Z 34004KT 18/M01 A3003 RMK A01 T01821005  RH  029%=      5-min Rain = 0
KPT1 250200Z 06003KT 18/M00 A3003 RMK A01 T01781004  RH  030%=      5-min Rain = 0
KPT1 250205Z 09002KT 18/M00 A3003 RMK A01 T01751004  RH  030%=      5-min Rain = 0
KPT1 250210Z 07003KT 18/M01 A3003 RMK A01 T01801007  RH  029%=      5-min Rain = 0
KPT1 250215Z 06003KT 18/M01 A3004 RMK A01 T01831010  RH  027%=      5-min Rain = 0
KPT1 250220Z 05004KT 19/M01 A3004 RMK A01 T01861011  RH  027%=      5-min Rain = 0
KPT1 250225Z 07005KT 18/M01 A3004 RMK A01 T01811006  RH  029%=      5-min Rain = 0
KPT1 250230Z 06006KT 17/01 A3004 RMK A01 T01720007  RH  033%=      5-min Rain = 0
KPT1 250235Z 06005KT 17/01 A3005 RMK A01 T01660007  RH  034%=      5-min Rain = 0
KPT1 250240Z 07006KT 17/01 A3005 RMK A01 T01660011  RH  035%=      5-min Rain = 0
KPT1 250245Z 08005KT 16/02 A3005 RMK A01 T01600016  RH  038%=      5-min Rain = 0
KPT1 250250Z 09004KT 16/02 A3006 RMK A01 T01590020  RH  040%=      5-min Rain = 0
KPT1 250255Z 07003KT 16/03 A3006 RMK A01 T01610025  RH  040%=      5-min Rain = 0
KPT1 250300Z 07003KT 16/03 A3006 RMK A01 T01620028  RH  041%=      5-min Rain = 0
KPT1 250305Z 08002KT 16/03 A3007 RMK A01 T01600029  RH  042%=      5-min Rain = 0
KPT1 250310Z 09002KT 16/03 A3007 RMK A01 T01580030  RH  043%=      5-min Rain = 0
KPT1 250315Z 12002KT 16/03 A3007 RMK A01 T01550032  RH  044%=      5-min Rain = 0
KPT1 250320Z 13004KT 15/03 A3007 RMK A01 T01520033  RH  046%=      5-min Rain = 0
KPT1 250325Z 13003KT 15/03 A3007 RMK A01 T01510032  RH  045%=      5-min Rain = 0
KPT1 250330Z 13003KT 15/03 A3008 RMK A01 T01500033  RH  046%=      5-min Rain = 0
KPT1 250335Z 14002KT 15/03 A3008 RMK A01 T01500032  RH  046%=      5-min Rain = 0
KPT1 250340Z 16003KT 15/03 A3008 RMK A01 T01510032  RH  046%=      5-min Rain = 0
KPT1 250345Z 16003KT 15/03 A3008 RMK A01 T01510032  RH  045%=      5-min Rain = 0
KPT1 250350Z 16003KT 15/03 A3008 RMK A01 T01520031  RH  045%=      5-min Rain = 0
KPT1 250355Z 15002KT 15/03 A3009 RMK A01 T01530032  RH  045%=      5-min Rain = 0
KPT1 250400Z 14003KT 15/03 A3009 RMK A01 T01540033  RH  045%=      5-min Rain = 0
KPT1 250405Z 14004KT 15/03 A3009 RMK A01 T01520034  RH  046%=      5-min Rain = 0
KPT1 250410Z 14003KT 15/03 A3009 RMK A01 T01510034  RH  046%=      5-min Rain = 0
KPT1 250415Z 14003KT 15/03 A3009 RMK A01 T01520034  RH  046%=      5-min Rain = 0
KPT1 250420Z 13003KT 15/03 A3009 RMK A01 T01510034  RH  046%=      5-min Rain = 0
KPT1 250425Z 12003KT 15/04 A3009 RMK A01 T01510035  RH  046%=      5-min Rain = 0
KPT1 250430Z 13004KT 15/04 A3009 RMK A01 T01500035  RH  047%=      5-min Rain = 0
KPT1 250435Z 14003KT 15/03 A301 RMK A01 T01480034  RH  047%=      5-min Rain = 0
KPT1 250440Z 13003KT 15/03 A301 RMK A01 T01470034  RH  047%=      5-min Rain = 0
KPT1 250445Z 13004KT 15/03 A3009 RMK A01 T01460034  RH  048%=      5-min Rain = 0
KPT1 250450Z 13004KT 14/04 A301 RMK A01 T01420035  RH  049%=      5-min Rain = 0
KPT1 250455Z 13004KT 14/04 A301 RMK A01 T01420036  RH  049%=      5-min Rain = 0

Page generated in 0.0129 seconds.